createdAt,value
2018-11-21T00:00:25.283Z,29.50
2018-11-21T00:05:09.907Z,30.80
2018-11-21T00:09:54.531Z,30.97
2018-11-21T00:14:39.150Z,29.77
2018-11-21T00:19:23.793Z,28.90
2018-11-21T00:24:08.395Z,27.50
2018-11-21T00:28:53.009Z,33.97
2018-11-21T00:33:37.638Z,31.83
2018-11-21T00:38:22.277Z,26.93
2018-11-21T00:43:07.047Z,32.67
2018-11-21T00:47:51.637Z,26.07
2018-11-21T00:52:36.512Z,31.90
2018-11-21T00:57:21.123Z,25.30
2018-11-21T01:02:05.868Z,24.93
2018-11-21T01:06:50.514Z,22.80
2018-11-21T01:11:35.169Z,24.00
2018-11-21T01:16:19.724Z,28.13
2018-11-21T01:21:04.408Z,19.57
2018-11-21T01:25:48.976Z,22.30
2018-11-21T01:30:33.575Z,22.97
2018-11-21T01:35:18.139Z,20.63
2018-11-21T01:40:03.050Z,27.17
2018-11-21T01:44:47.629Z,21.87
2018-11-21T01:49:32.280Z,20.33
2018-11-21T01:54:16.842Z,24.00
2018-11-21T01:59:01.439Z,18.90
2018-11-21T02:03:45.984Z,18.77
2018-11-21T02:08:30.635Z,18.87
2018-11-21T02:13:15.194Z,23.03
2018-11-21T02:17:59.768Z,20.63
2018-11-21T02:22:44.364Z,18.70
2018-11-21T02:27:29.014Z,19.37
2018-11-21T02:32:13.571Z,20.97
2018-11-21T02:36:58.208Z,18.97
2018-11-21T02:41:42.814Z,17.33
2018-11-21T02:46:27.401Z,18.63
2018-11-21T02:51:11.999Z,22.10
2018-11-21T02:55:56.625Z,18.43
2018-11-21T03:00:41.208Z,19.60
2018-11-21T03:05:25.821Z,22.47
2018-11-21T03:10:10.627Z,31.23
2018-11-21T03:14:55.223Z,24.00
2018-11-21T03:19:39.755Z,22.37
2018-11-21T03:24:24.353Z,19.90
2018-11-21T03:29:08.920Z,22.00
2018-11-21T03:33:57.734Z,21.43
2018-11-21T03:38:38.240Z,21.87
2018-11-21T03:43:22.832Z,18.23
2018-11-21T03:48:07.398Z,20.70
2018-11-21T03:52:51.962Z,18.83
2018-11-21T03:57:36.838Z,17.97
2018-11-21T04:02:21.409Z,21.83
2018-11-21T04:07:06.078Z,17.53
2018-11-21T04:11:50.660Z,20.30
2018-11-21T04:16:35.367Z,24.80
2018-11-21T04:21:19.994Z,19.20
2018-11-21T04:26:04.599Z,22.37
2018-11-21T04:30:49.243Z,25.97
2018-11-21T04:35:33.843Z,19.90
2018-11-21T04:40:18.451Z,17.53
2018-11-21T04:45:03.050Z,18.83
2018-11-21T04:49:50.324Z,15.60
2018-11-21T04:54:34.936Z,16.93
2018-11-21T04:59:19.521Z,18.27
2018-11-21T05:04:04.254Z,18.90
2018-11-21T05:08:48.711Z,18.07
2018-11-21T05:13:33.268Z,20.87
2018-11-21T05:18:17.897Z,22.40
2018-11-21T05:23:02.616Z,23.57
2018-11-21T05:27:47.219Z,23.57
2018-11-21T05:32:31.920Z,21.73
2018-11-21T05:37:16.545Z,24.80
2018-11-21T05:42:01.317Z,27.07
2018-11-21T05:46:45.980Z,24.40
2018-11-21T05:51:30.745Z,24.60
2018-11-21T05:56:15.372Z,28.10
2018-11-21T06:01:00.055Z,25.43
2018-11-21T06:05:44.911Z,30.27
2018-11-21T06:10:29.462Z,26.00
2018-11-21T06:15:14.087Z,28.13
2018-11-21T06:19:58.646Z,28.23
2018-11-21T06:24:43.343Z,24.53
2018-11-21T06:29:27.926Z,25.33
2018-11-21T06:34:12.560Z,27.57
2018-11-21T06:38:57.132Z,23.40
2018-11-21T06:43:41.761Z,24.03
2018-11-21T06:48:26.409Z,26.27
2018-11-21T06:53:10.963Z,26.83
2018-11-21T06:57:55.936Z,27.57
2018-11-21T07:02:41.347Z,27.47
2018-11-21T07:07:25.980Z,28.17
2018-11-21T07:12:10.583Z,26.90
2018-11-21T07:16:55.229Z,34.27
2018-11-21T07:21:39.942Z,30.40
2018-11-21T07:26:24.539Z,30.63
2018-11-21T07:31:09.180Z,27.77
2018-11-21T07:35:53.739Z,27.43
2018-11-21T07:40:38.327Z,27.77
2018-11-21T07:45:23.750Z,26.83
2018-11-21T07:50:13.484Z,25.63
2018-11-21T07:54:58.051Z,25.67
2018-11-21T08:00:19.748Z,26.30
2018-11-21T08:05:18.566Z,26.80
2018-11-21T08:10:22.455Z,25.80
2018-11-21T08:15:25.955Z,24.60
2018-11-21T08:20:28.321Z,24.60
2018-11-21T08:25:30.440Z,22.17
2018-11-21T08:30:15.016Z,21.80
2018-11-21T08:35:01.858Z,21.23
2018-11-21T08:39:46.432Z,22.23
2018-11-21T08:44:31.076Z,20.83
2018-11-21T08:49:15.746Z,23.10
2018-11-21T08:54:00.350Z,20.30
2018-11-21T08:58:45.010Z,18.90
2018-11-21T09:03:29.630Z,19.83
2018-11-21T09:08:14.223Z,22.10
2018-11-21T09:12:58.845Z,21.53
2018-11-21T09:17:43.859Z,20.53
2018-11-21T09:22:28.473Z,20.87
2018-11-21T09:27:13.022Z,20.00
2018-11-21T09:31:57.687Z,19.93
2018-11-21T09:36:42.264Z,19.60
2018-11-21T09:41:26.950Z,21.10
2018-11-21T09:46:11.522Z,19.20
2018-11-21T09:50:56.112Z,18.87
2018-11-21T09:55:40.773Z,19.40
2018-11-21T10:01:01.371Z,18.57
2018-11-21T10:05:48.059Z,19.37
2018-11-21T10:10:32.691Z,17.90
2018-11-21T10:15:17.318Z,17.67
2018-11-21T10:20:01.956Z,17.87
2018-11-21T10:24:46.534Z,16.80
2018-11-21T10:29:31.162Z,17.23
2018-11-21T10:34:15.733Z,17.77
2018-11-21T10:39:00.369Z,17.80
2018-11-21T10:43:44.933Z,18.83
2018-11-21T10:48:29.564Z,18.23
2018-11-21T10:53:14.171Z,20.20
2018-11-21T10:57:58.822Z,19.63
2018-11-21T11:03:05.453Z,19.33
2018-11-21T11:08:27.248Z,18.90
2018-11-21T11:13:35.258Z,18.30
2018-11-21T11:18:50.927Z,18.60
2018-11-21T11:24:00.363Z,18.63
2018-11-21T11:29:02.030Z,18.53
2018-11-21T11:33:57.631Z,16.93
2018-11-21T11:38:59.810Z,17.73
2018-11-21T11:44:02.258Z,18.70
2018-11-21T11:49:20.706Z,17.00
2018-11-21T11:54:23.366Z,17.67
2018-11-21T11:59:25.479Z,17.77
2018-11-21T12:04:37.913Z,16.93
2018-11-21T12:09:40.194Z,16.70
2018-11-21T12:14:49.508Z,16.80
2018-11-21T12:19:56.361Z,17.37
2018-11-21T12:25:02.509Z,17.53
2018-11-21T12:30:15.150Z,17.70
2018-11-21T12:35:17.551Z,18.23
2018-11-21T12:40:30.356Z,15.83
2018-11-21T12:45:45.978Z,16.80
2018-11-21T12:50:48.387Z,16.27
2018-11-21T12:55:50.828Z,17.53
2018-11-21T13:00:54.451Z,16.17
2018-11-21T13:06:04.040Z,16.83
2018-11-21T13:11:07.693Z,17.10
2018-11-21T13:16:10.190Z,16.10
2018-11-21T13:21:25.769Z,17.60
2018-11-21T13:26:39.700Z,16.17
2018-11-21T13:31:41.687Z,15.93
2018-11-21T13:36:50.947Z,16.90
2018-11-21T13:42:06.524Z,15.93
2018-11-21T13:47:08.625Z,16.27
2018-11-21T13:52:07.870Z,15.93
2018-11-21T13:56:53.453Z,16.10
2018-11-21T14:01:37.034Z,16.50
2018-11-21T14:06:21.778Z,16.87
2018-11-21T14:11:06.634Z,17.20
2018-11-21T14:15:51.387Z,16.87
2018-11-21T14:20:36.156Z,16.23
2018-11-21T14:25:21.017Z,17.50
2018-11-21T14:30:09.793Z,17.97
2018-11-21T14:34:54.447Z,17.30
2018-11-21T14:39:39.076Z,17.20
2018-11-21T14:44:23.777Z,17.83
2018-11-21T14:49:08.821Z,16.20
2018-11-21T14:53:53.491Z,15.73
2018-11-21T14:58:38.097Z,17.10
2018-11-21T15:03:22.755Z,16.83
2018-11-21T15:08:07.580Z,17.23
2018-11-21T15:12:52.262Z,15.63
2018-11-21T15:17:36.864Z,16.00
2018-11-21T15:22:21.551Z,16.00
2018-11-21T15:27:06.188Z,17.20
2018-11-21T15:31:50.793Z,16.03
2018-11-21T15:36:35.374Z,16.43
2018-11-21T15:41:20.004Z,16.77
2018-11-21T15:46:04.666Z,16.10
2018-11-21T15:50:49.291Z,18.33
2018-11-21T15:55:34.101Z,17.17
2018-11-21T16:00:24.109Z,18.10
2018-11-21T16:05:09.042Z,19.57
2018-11-21T16:09:53.793Z,29.47
2018-11-21T16:14:38.425Z,17.57
2018-11-21T16:19:23.062Z,18.10
2018-11-21T16:24:07.711Z,16.43
2018-11-21T16:28:52.653Z,19.20
2018-11-21T16:33:37.368Z,18.17
2018-11-21T16:38:22.120Z,17.80
2018-11-21T16:43:07.069Z,16.73
2018-11-21T16:47:51.735Z,17.63
2018-11-21T16:52:36.348Z,18.30
2018-11-21T16:57:20.961Z,18.87
2018-11-21T17:02:05.687Z,18.63
2018-11-21T17:06:50.406Z,17.33
2018-11-21T17:11:35.064Z,18.63
2018-11-21T17:16:19.779Z,19.60
2018-11-21T17:21:04.521Z,18.47
2018-11-21T17:25:49.897Z,17.33
2018-11-21T17:30:34.597Z,17.83
2018-11-21T17:35:20.001Z,16.40
2018-11-21T17:40:07.520Z,15.83
2018-11-21T17:44:52.235Z,15.73
2018-11-21T17:49:37.046Z,15.50
2018-11-21T17:54:21.826Z,16.30
2018-11-21T17:59:06.565Z,16.90
2018-11-21T18:03:51.255Z,23.27
2018-11-21T18:08:36.044Z,23.03
2018-11-21T18:13:20.750Z,19.73
2018-11-21T18:18:05.720Z,18.87
2018-11-21T18:22:50.650Z,20.27
2018-11-21T18:27:35.345Z,20.33
2018-11-21T18:32:20.136Z,21.17
2018-11-21T18:37:04.780Z,21.33
2018-11-21T18:41:49.662Z,20.27
2018-11-21T18:46:34.436Z,21.07
2018-11-21T18:51:19.231Z,21.10
2018-11-21T18:56:20.889Z,18.10
2018-11-21T19:01:06.520Z,19.27
2018-11-21T19:05:51.585Z,19.73
2018-11-21T19:10:36.467Z,21.23
2018-11-21T19:15:21.333Z,19.63
2018-11-21T19:20:09.391Z,19.97
2018-11-21T19:24:54.081Z,19.90
2018-11-21T19:29:38.927Z,18.93
2018-11-21T19:34:23.760Z,20.67
2018-11-21T19:39:12.418Z,20.63
2018-11-21T19:43:57.136Z,20.57
2018-11-21T19:48:42.053Z,19.83
2018-11-21T19:53:26.846Z,20.70
2018-11-21T19:58:11.716Z,21.43
2018-11-21T20:02:56.635Z,20.30
2018-11-21T20:07:41.931Z,20.57
